Latest Weather Observations for Camooweal

IDQ60801

Issued at 5:02 pm EST Friday 31 July 2015 (issued every 30 minutes, with the page automatically refreshed every 10 minutes)

About weather observations | Map of weather stations | Latest weather observations for QLD | Other Formats
Station Details ID: 037010 Name: CAMOOWEAL TOWNSHIP Lat: -19.92 Lon: 138.12 Height: 231.2 m
Data from the previous 72 hours. | See also: Recent months at Camooweal
Date/Time
EST
Temp
°C
App
Temp
°C
Dew
Point
Rel
Hum
%
Delta-T
°C
Wind Press
QNH
hPa
Press
MSL
hPa
Rain
since 9 am
mm
Dir
 
Spd
km/h
Gust
km/h
Spd
kts
Gust
kts
31/05:00pm 29.6 24.9 -1.7 13 14.6 ESE 13 20 7 11 - - 0.0
31/04:30pm 29.7 24.6 -1.6 13 14.7 ESE 15 19 8 10 - - 0.0
31/04:00pm 29.5 24.3 -2.9 12 14.8 ESE 15 26 8 14 - - 0.0
31/03:30pm 29.4 24.7 -1.9 13 14.6 ESE 13 20 7 11 - - 0.0
31/03:00pm 29.5 24.0 -1.8 13 14.6 E 17 26 9 14 - - 0.0
31/02:30pm 29.3 24.7 -0.9 14 14.3 ESE 13 26 7 14 1017.3 1016.9 0.0
31/02:00pm 29.1 24.0 0.7 16 13.8 E 17 28 9 15 1017.8 1017.4 0.0
31/01:30pm 28.1 23.8 0.8 17 13.2 SE 13 22 7 12 1018.3 1017.9 0.0
31/01:00pm 28.9 23.9 1.4 17 13.5 SE 17 30 9 16 1018.9 1018.5 0.0
31/12:30pm 27.9 23.0 2.2 19 12.7 ESE 17 28 9 15 1019.5 1019.1 0.0
31/12:00pm 27.4 23.0 2.5 20 12.3 ESE 15 26 8 14 1020.1 1019.6 0.0
31/11:30am 26.4 21.3 3.0 22 11.6 E 19 30 10 16 1020.4 1019.9 0.0
31/11:00am 26.6 20.3 3.8 23 11.5 E 26 33 14 18 1020.7 1020.2 0.0
31/10:30am 25.8 19.4 3.1 23 11.2 ENE 26 35 14 19 1020.9 1020.4 0.0
31/10:00am 24.8 18.7 2.9 24 10.7 E 24 32 13 17 1020.9 1020.4 0.0
31/09:30am 22.5 17.4 3.1 28 9.4 E 19 28 10 15 1020.7 1020.2 0.0
31/09:00am 18.8 13.9 2.2 33 7.7 ESE 17 22 9 12 1020.7 1020.2 0.0
31/08:52am 17.9 13.4 2.2 35 7.2 ESE 15 24 8 13 1020.7 1020.2 0.0
31/08:30am 12.9 10.0 -1.1 38 5.7 S 4 6 2 3 1020.7 1020.2 0.0
31/08:00am 9.9 6.6 -1.5 45 4.5 SSW 6 7 3 4 1020.7 1020.2 0.0
31/07:30am 9.0 5.4 -2.3 45 4.3 SSW 7 9 4 5 1020.6 1020.1 0.0
31/07:00am 9.4 5.8 -1.9 45 4.4 SSW 7 9 4 5 1020.4 1019.9 0.0
31/06:30am 9.8 6.2 -1.9 44 4.5 SW 7 7 4 4 1020.2 1019.7 0.0
31/06:00am 9.1 5.0 -2.8 43 4.5 SSW 9 11 5 6 1019.8 1019.3 0.0
31/05:30am 10.3 6.9 -2.4 41 4.9 SSW 6 7 3 4 1019.5 1019.1 0.0
31/05:00am 10.8 7.4 -1.9 41 5.0 SSW 6 7 3 4 1019.8 1019.3 0.0
31/04:30am 11.2 7.6 -2.2 39 5.3 SW 7 7 4 4 1019.5 1019.1 0.0
31/04:00am 11.7 8.3 -1.8 39 5.4 SSW 6 9 3 5 1019.5 1019.1 0.0
31/03:30am 12.4 9.0 -0.8 40 5.4 S 7 7 4 4 1019.5 1019.1 0.0
31/03:00am 13.1 9.6 -1.6 36 5.9 S 7 9 4 5 1019.6 1019.2 0.0
31/02:30am 14.5 10.6 -1.2 34 6.5 S 9 11 5 6 1019.9 1019.4 0.0
31/02:00am 14.2 10.0 -0.6 36 6.2 S 11 15 6 8 1020.3 1019.8 0.0
31/01:30am 14.8 10.9 -1.3 33 6.7 SSW 9 11 5 6 1020.4 1019.9 0.0
31/01:00am 15.6 12.2 -0.6 33 6.9 SSW 7 9 4 5 1020.4 1019.9 0.0
31/12:30am 15.1 11.2 -1.5 32 6.9 SSW 9 11 5 6 1020.7 1020.2 0.0
31/12:00am 15.3 11.4 -1.7 31 7.0 SSW 9 11 5 6 1020.7 1020.2 0.0
 
Date/Time
EST
Temp
°C
App
Temp
°C
Dew
Point
Rel
Hum
%
Delta-T
°C
Wind Press
QNH
hPa
Press
MSL
hPa
Rain
since 9 am
mm
Dir
 
Spd
km/h
Gust
km/h
Spd
kts
Gust
kts
30/11:30pm 15.1 11.4 -2.8 29 7.2 SSW 7 9 4 5 1020.7 1020.2 0.0
30/11:00pm 15.8 12.2 -2.2 29 7.4 SW 7 9 4 5 1020.8 1020.3 0.0
30/10:30pm 16.4 12.4 -2.6 27 7.8 SW 9 9 5 5 1020.8 1020.3 0.0
30/10:00pm 17.4 13.5 -1.3 28 7.9 SW 9 11 5 6 1020.8 1020.3 0.0
30/09:30pm 18.2 14.8 -0.6 28 8.2 SSW 7 9 4 5 1020.7 1020.2 0.0
30/09:00pm 18.7 15.4 -0.2 28 8.3 SSW 7 9 4 5 1020.5 1020.0 0.0
30/08:30pm 19.6 15.9 0.1 27 8.7 SSW 9 9 5 5 1020.3 1019.8 0.0
30/08:00pm 20.5 17.2 -0.2 25 9.2 SSW 7 9 4 5 1019.9 1019.4 0.0
30/07:30pm 21.9 18.2 -0.1 23 10.0 SW 9 11 5 6 1019.8 1019.3 0.0
30/07:00pm 23.6 20.0 0.7 22 10.7 SW 9 9 5 5 1019.5 1019.1 0.0
30/06:30pm 24.8 21.2 0.3 20 11.4 SSW 9 11 5 6 1019.2 1018.8 0.0
30/06:00pm 26.7 23.1 0.4 18 12.5 SW 9 11 5 6 - - 0.0
30/05:30pm 28.0 24.0 0.7 17 13.2 SSW 11 19 6 10 - - 0.0
30/05:00pm 27.9 23.3 1.4 18 12.9 SW 15 20 8 11 - - 0.0
30/04:30pm 28.3 24.1 1.7 18 13.1 SW 13 20 7 11 - - 0.0
30/04:00pm 28.8 25.3 1.3 17 13.5 WSW 9 15 5 8 - - 0.0
30/03:30pm 28.6 24.7 1.2 17 13.4 WSW 11 20 6 11 - - 0.0
30/03:00pm 28.6 25.5 3.5 20 12.8 W 9 15 5 8 - - 0.0
30/02:30pm 27.6 23.8 1.9 19 12.6 WSW 11 17 6 9 - - 0.0
30/02:00pm 27.5 24.1 1.8 19 12.5 SSW 9 13 5 7 1020.3 1019.8 0.0
30/01:30pm 27.7 24.9 3.4 21 12.3 SW 7 19 4 10 1020.7 1020.2 0.0
30/01:00pm 27.5 24.7 1.8 19 12.5 NE 6 9 3 5 1021.5 1021.1 0.0
30/12:30pm 26.9 23.9 2.1 20 12.2 ENE 7 11 4 6 1021.9 1021.5 0.0
30/12:00pm 26.0 22.7 2.7 22 11.4 E 9 15 5 8 1022.3 1021.9 0.0
30/11:30am 25.0 21.6 1.8 22 11.2 E 9 17 5 9 1022.6 1022.2 0.0
30/11:00am 23.7 19.5 1.4 23 10.5 SE 13 20 7 11 1022.7 1022.3 0.0
30/10:30am 22.5 18.1 0.4 23 10.2 SE 13 19 7 10 1023.2 1022.8 0.0
30/10:00am 21.6 16.7 -0.4 23 9.8 ESE 15 20 8 11 1023.3 1022.9 0.0
30/09:30am 19.6 14.4 -2.7 22 9.4 SSE 15 20 8 11 1023.3 1022.9 0.0
30/09:00am 17.5 13.8 -2.7 25 8.3 SSE 7 15 4 8 1022.9 1022.5 0.0
30/08:57am 16.5 13.0 -2.5 27 7.8 SSE 6 11 3 6 1022.9 1022.5 0.0
30/08:30am 11.1 7.2 -4.9 32 5.9 SSW 7 9 4 5 1022.7 1022.3 0.0
30/08:00am 7.9 4.1 -5.9 37 4.7 SW 6 7 3 4 1022.5 1022.1 0.0
30/07:30am 6.9 3.0 -6.1 39 4.4 SSW 6 7 3 4 1022.3 1021.9 0.0
30/07:00am 6.8 2.4 -6.2 39 4.4 SW 9 11 5 6 1022.1 1021.7 0.0
30/06:30am 6.8 2.7 -6.2 39 4.4 SW 7 9 4 5 1021.8 1021.4 0.0
30/06:00am 7.1 2.7 -5.6 40 4.3 S 9 9 5 5 1021.5 1021.1 0.0
30/05:30am 7.4 3.4 -5.3 40 4.4 S 7 9 4 5 1021.2 1020.8 0.0
30/05:00am 7.9 3.9 -5.5 38 4.6 S 7 9 4 5 1021.3 1020.9 0.0
30/04:30am 8.4 4.0 -5.8 36 4.9 SSW 9 9 5 5 1021.4 1021.0 0.0
30/04:00am 8.8 4.7 -6.2 34 5.2 S 7 9 4 5 1021.6 1021.2 0.0
30/03:30am 9.8 6.0 -5.7 33 5.5 SSW 6 7 3 4 1021.7 1021.3 0.0
30/03:00am 10.1 6.6 -5.8 32 5.6 SSW 4 6 2 3 1021.8 1021.4 0.0
30/02:30am 10.4 6.4 -5.6 32 5.7 SW 7 11 4 6 1022.0 1021.6 0.0
30/02:00am 11.2 6.9 -4.9 32 5.9 SW 9 11 5 6 1022.1 1021.7 0.0
30/01:30am 11.1 6.5 -4.5 33 5.8 SSW 11 13 6 7 - - 0.0
30/01:00am 12.8 8.9 -4.3 30 6.5 SSW 7 9 4 5 1022.4 1022.0 0.0
30/12:30am 13.6 9.5 -3.2 31 6.6 SSW 9 11 5 6 1022.3 1021.9 0.0
30/12:00am 15.5 12.1 -2.4 29 7.3 SSW 6 7 3 4 1022.3 1021.9 0.0
 
Date/Time
EST
Temp
°C
App
Temp
°C
Dew
Point
Rel
Hum
%
Delta-T
°C
Wind Press
QNH
hPa
Press
MSL
hPa
Rain
since 9 am
mm
Dir
 
Spd
km/h
Gust
km/h
Spd
kts
Gust
kts
29/11:30pm 15.8 12.1 -2.6 28 7.5 S 7 9 4 5 1022.3 1021.9 0.0
29/11:00pm 17.6 13.2 -2.1 26 8.2 S 11 17 6 9 1022.3 1021.9 0.0
29/10:30pm 15.6 11.8 -0.6 33 6.9 SSW 9 13 5 7 1022.1 1021.7 0.0
29/10:00pm 16.8 13.0 -0.4 31 7.4 SSW 9 11 5 6 1022.1 1021.7 0.0
29/09:30pm 17.2 12.7 -0.5 30 7.6 SSW 13 17 7 9 1022.0 1021.6 0.0
29/09:00pm 18.9 15.2 0.0 28 8.3 S 9 13 5 7 1022.0 1021.6 0.0
29/08:30pm 20.6 16.3 1.0 27 9.0 S 13 15 7 8 1021.7 1021.3 0.0
29/08:00pm 21.4 17.3 2.2 28 9.0 S 13 15 7 8 1021.5 1021.1 0.0
29/07:30pm 21.3 17.2 2.1 28 9.0 S 13 13 7 7 1021.0 1020.6 0.0
29/07:00pm 22.3 18.4 1.3 25 9.8 S 11 13 6 7 1020.7 1020.2 0.0
29/06:30pm 24.6 21.1 1.5 22 11.0 S 9 11 5 6 1020.4 1019.9 0.0
29/06:00pm 26.7 22.4 1.2 19 12.2 S 13 17 7 9 1020.2 1019.7 0.0
29/05:30pm 27.4 23.2 1.8 19 12.5 SSE 13 20 7 11 - - 0.0
29/05:00pm 27.6 23.7 3.3 21 12.2 SE 13 19 7 10 - - 0.0
29/04:30pm 28.1 23.6 4.4 22 12.2 SSE 17 28 9 15 - - 0.0
29/04:00pm 27.8 23.5 3.5 21 12.2 SE 15 20 8 11 1020.3 1019.8 0.0
29/03:30pm 27.6 23.7 3.3 21 12.2 SSW 13 20 7 11 1020.6 1020.1 0.0
29/03:00pm 27.7 24.3 4.1 22 12.0 E 11 20 6 11 1021.1 1020.7 0.0
29/02:30pm 27.0 23.1 3.5 22 11.8 ESE 13 20 7 11 1021.5 1021.1 0.0
29/02:00pm 26.7 23.1 3.2 22 11.7 ESE 11 20 6 11 1022.1 1021.7 0.0
29/01:30pm 26.0 21.9 2.0 21 11.7 SE 13 22 7 12 1022.5 1022.1 0.0
29/01:00pm 24.5 20.1 0.1 20 11.3 SE 13 22 7 12 1023.3 1022.9 0.0
29/12:30pm 23.2 18.3 -0.3 21 10.7 SE 15 26 8 14 1024.1 1023.7 0.0
29/12:00pm 21.8 16.3 -2.1 20 10.4 SE 17 24 9 13 1024.8 1024.4 0.0
29/11:30am 20.4 14.5 -2.6 21 9.8 SE 19 28 10 15 1025.4 1025.0 0.0
29/11:00am 19.4 13.3 -4.1 20 9.6 SSE 19 30 10 16 1025.7 1025.3 0.0
29/10:30am 17.2 10.8 -4.7 22 8.7 SSE 20 26 11 14 1026.0 1025.6 0.0
29/10:00am 15.8 9.0 -4.7 24 7.9 S 22 30 12 16 1026.0 1025.6 0.0
29/09:30am 14.4 7.6 -5.3 25 7.5 S 22 28 12 15 1025.9 1025.5 0.0
29/09:00am 13.1 6.3 -5.4 27 6.8 SSE 22 28 12 15 1025.7 1025.3 0.0
29/08:30am 12.2 5.0 -5.3 29 6.5 SSE 24 33 13 18 1025.5 1025.1 0.0
29/08:00am 11.1 4.7 -5.4 31 6.0 S 20 28 11 15 1025.2 1024.8 0.0
29/07:30am 10.2 3.9 -6.2 31 5.8 S 19 24 10 13 1024.8 1024.4 0.0
29/07:00am 9.9 3.0 -6.4 31 5.7 S 22 30 12 16 1024.5 1024.0 0.0
29/06:30am 9.6 3.2 -7.1 30 5.7 S 19 24 10 13 1024.3 1023.8 0.0
29/06:00am 9.0 2.9 -7.6 30 5.5 S 17 20 9 11 1023.9 1023.5 0.0
29/05:30am 8.9 2.8 -8.1 29 5.6 SSW 17 20 9 11 1023.7 1023.3 0.0
29/05:00am 8.9 3.1 -8.1 29 5.6 SSW 15 19 8 10 1023.5 1023.1 0.0
29/04:30am 8.8 3.8 -8.2 29 5.6 SSW 11 15 6 8 1023.4 1023.0 0.0
29/04:00am 9.4 4.5 -7.3 30 5.6 SSW 11 13 6 7 1023.4 1023.0 0.0
29/03:30am 10.2 5.6 -7.5 28 6.1 SSW 9 11 5 6 1023.5 1023.1 0.0
29/03:00am 12.2 6.8 -8.3 23 7.0 S 13 17 7 9 1023.5 1023.1 0.0
29/02:30am 14.9 8.8 -7.8 20 8.2 SSE 17 22 9 12 1023.6 1023.2 0.0
29/02:00am 15.2 8.7 -8.2 19 8.3 SSE 19 24 10 13 1023.8 1023.4 0.0
29/01:30am 15.8 9.1 -7.7 19 8.6 SSE 20 28 11 15 1023.9 1023.5 0.0
29/01:00am 14.9 9.3 -6.6 22 7.9 SSE 15 20 8 11 1024.0 1023.6 0.0
29/12:30am 15.2 9.7 -5.8 23 7.9 SSE 15 22 8 12 1024.3 1023.8 0.0
29/12:00am 15.6 9.3 -5.4 23 8.0 SSE 19 22 10 12 1024.5 1024.0 0.0
 
Date/Time
EST
Temp
°C
App
Temp
°C
Dew
Point
Rel
Hum
%
Delta-T
°C
Wind Press
QNH
hPa
Press
MSL
hPa
Rain
since 9 am
mm
Dir
 
Spd
km/h
Gust
km/h
Spd
kts
Gust
kts
28/11:30pm 15.9 9.7 -4.6 24 8.0 SSE 19 26 10 14 1024.8 1024.4 0.0
28/11:00pm 16.4 10.1 -4.2 24 8.1 SSE 20 28 11 15 1024.8 1024.4 0.0
28/10:30pm 16.7 10.4 -3.9 24 8.2 SSE 20 24 11 13 1024.9 1024.5 0.0
28/10:00pm 17.2 11.5 -3.5 24 8.3 SSE 17 22 9 12 1024.8 1024.4 0.0
28/09:30pm 17.9 11.9 -2.9 24 8.6 SSE 19 22 10 12 1024.6 1024.1 0.0
28/09:00pm 18.4 12.5 -2.5 24 8.7 SSE 19 22 10 12 1024.6 1024.1 0.0
28/08:30pm 19.0 13.5 -2.0 24 8.9 S 17 22 9 12 1024.4 1023.9 0.0
28/08:00pm 19.8 14.7 -1.9 23 9.3 S 15 20 8 11 1024.0 1023.6 0.0
28/07:30pm 20.8 15.0 -1.7 22 9.8 S 19 22 10 12 1023.5 1023.1 0.0
28/07:00pm 21.5 15.8 -1.1 22 10.0 S 19 24 10 13 1023.2 1022.8 0.0
28/06:30pm 22.4 16.1 -1.0 21 10.5 SSE 22 32 12 17 1022.9 1022.5 0.0
28/06:00pm 23.3 16.2 -0.9 20 10.9 SSE 26 37 14 20 1022.7 1022.3 0.0
28/05:30pm 24.0 16.6 -1.0 19 11.3 SSE 28 35 15 19 1022.5 1022.1 0.0

Other Formats:

Comma delimited format used in spreadsheet applications
http://www.bom.gov.au/fwo/IDQ60801/IDQ60801.94255.axf

JavaScript Object Notation format (JSON) in row-major order
http://www.bom.gov.au/fwo/IDQ60801/IDQ60801.94255.json